sensor_id;sensor_type;location;lat;lon;timestamp;temperature;humidity
75442;DHT22;64019;48.312;14.226;2022-11-18T00:01:11;5.30;99.90
75442;DHT22;64019;48.312;14.226;2022-11-18T00:03:38;5.40;99.90
75442;DHT22;64019;48.312;14.226;2022-11-18T00:06:05;5.30;99.90
75442;DHT22;64019;48.312;14.226;2022-11-18T00:08:32;5.30;99.90
75442;DHT22;64019;48.312;14.226;2022-11-18T00:10:58;5.30;99.90
75442;DHT22;64019;48.312;14.226;2022-11-18T00:13:23;5.30;99.90
75442;DHT22;64019;48.312;14.226;2022-11-18T00:16:10;5.30;99.90
75442;DHT22;64019;48.312;14.226;2022-11-18T00:18:36;5.40;99.90
75442;DHT22;64019;48.312;14.226;2022-11-18T00:21:04;5.40;99.90
75442;DHT22;64019;48.312;14.226;2022-11-18T00:23:30;5.40;99.90
75442;DHT22;64019;48.312;14.226;2022-11-18T00:26:05;5.50;99.90
75442;DHT22;64019;48.312;14.226;2022-11-18T00:28:32;5.50;99.90
75442;DHT22;64019;48.312;14.226;2022-11-18T00:31:05;5.50;99.90
75442;DHT22;64019;48.312;14.226;2022-11-18T00:33:32;5.60;99.90
75442;DHT22;64019;48.312;14.226;2022-11-18T00:35:58;5.60;99.90
75442;DHT22;64019;48.312;14.226;2022-11-18T00:38:25;5.60;99.90
75442;DHT22;64019;48.312;14.226;2022-11-18T00:41:01;5.60;99.90
75442;DHT22;64019;48.312;14.226;2022-11-18T00:43:28;5.60;99.90
75442;DHT22;64019;48.312;14.226;2022-11-18T00:45:54;5.60;99.90
75442;DHT22;64019;48.312;14.226;2022-11-18T00:48:20;5.70;99.90
75442;DHT22;64019;48.312;14.226;2022-11-18T00:50:50;5.60;99.90
75442;DHT22;64019;48.312;14.226;2022-11-18T00:53:17;5.70;99.90
75442;DHT22;64019;48.312;14.226;2022-11-18T00:55:43;5.70;99.90
75442;DHT22;64019;48.312;14.226;2022-11-18T00:58:09;5.60;99.90
75442;DHT22;64019;48.312;14.226;2022-11-18T01:00:42;5.60;99.90
75442;DHT22;64019;48.312;14.226;2022-11-18T01:03:09;5.60;99.90
75442;DHT22;64019;48.312;14.226;2022-11-18T01:05:35;5.60;99.90
75442;DHT22;64019;48.312;14.226;2022-11-18T01:08:03;5.60;99.90
75442;DHT22;64019;48.312;14.226;2022-11-18T01:10:28;5.60;99.90
75442;DHT22;64019;48.312;14.226;2022-11-18T01:12:54;5.60;99.90
75442;DHT22;64019;48.312;14.226;2022-11-18T01:15:40;5.70;99.90
75442;DHT22;64019;48.312;14.226;2022-11-18T01:18:06;5.60;99.90
75442;DHT22;64019;48.312;14.226;2022-11-18T01:20:33;5.60;99.90
75442;DHT22;64019;48.312;14.226;2022-11-18T01:22:59;5.60;99.90
75442;DHT22;64019;48.312;14.226;2022-11-18T01:25:25;5.60;99.90
75442;DHT22;64019;48.312;14.226;2022-11-18T01:27:51;5.60;99.90
75442;DHT22;64019;48.312;14.226;2022-11-18T01:30:16;5.70;99.90
75442;DHT22;64019;48.312;14.226;2022-11-18T01:32:42;5.80;99.90
75442;DHT22;64019;48.312;14.226;2022-11-18T01:35:09;5.80;99.90
75442;DHT22;64019;48.312;14.226;2022-11-18T01:37:35;5.90;99.90
75442;DHT22;64019;48.312;14.226;2022-11-18T01:40:01;5.90;99.90
75442;DHT22;64019;48.312;14.226;2022-11-18T01:42:26;6.00;99.90
75442;DHT22;64019;48.312;14.226;2022-11-18T01:45:03;6.00;99.90
75442;DHT22;64019;48.312;14.226;2022-11-18T01:47:41;6.10;99.90
75442;DHT22;64019;48.312;14.226;2022-11-18T01:50:09;6.00;99.90
75442;DHT22;64019;48.312;14.226;2022-11-18T01:52:35;6.00;99.90
75442;DHT22;64019;48.312;14.226;2022-11-18T01:55:06;5.70;99.90
75442;DHT22;64019;48.312;14.226;2022-11-18T01:57:32;5.50;99.90
75442;DHT22;64019;48.312;14.226;2022-11-18T02:00:00;5.40;99.90
75442;DHT22;64019;48.312;14.226;2022-11-18T02:02:32;5.20;99.90
75442;DHT22;64019;48.312;14.226;2022-11-18T02:04:59;5.20;99.90
75442;DHT22;64019;48.312;14.226;2022-11-18T02:07:26;5.20;99.90
75442;DHT22;64019;48.312;14.226;2022-11-18T02:09:53;5.30;99.90
75442;DHT22;64019;48.312;14.226;2022-11-18T02:12:19;5.30;99.90
75442;DHT22;64019;48.312;14.226;2022-11-18T02:14:46;5.30;99.90
75442;DHT22;64019;48.312;14.226;2022-11-18T02:17:22;5.30;99.90
75442;DHT22;64019;48.312;14.226;2022-11-18T02:26:43;5.40;99.90
75442;DHT22;64019;48.312;14.226;2022-11-18T02:32:01;5.50;99.90
75442;DHT22;64019;48.312;14.226;2022-11-18T02:34:44;5.50;99.90
75442;DHT22;64019;48.312;14.226;2022-11-18T02:37:31;5.40;99.90
75442;DHT22;64019;48.312;14.226;2022-11-18T02:40:11;5.40;99.90
75442;DHT22;64019;48.312;14.226;2022-11-18T02:42:39;5.40;99.90
75442;DHT22;64019;48.312;14.226;2022-11-18T02:45:11;5.40;99.90
75442;DHT22;64019;48.312;14.226;2022-11-18T02:47:41;5.40;99.90
75442;DHT22;64019;48.312;14.226;2022-11-18T02:50:10;5.50;99.90
75442;DHT22;64019;48.312;14.226;2022-11-18T02:52:38;5.60;99.90
75442;DHT22;64019;48.312;14.226;2022-11-18T02:55:08;5.70;99.90
75442;DHT22;64019;48.312;14.226;2022-11-18T02:57:35;5.70;99.90
75442;DHT22;64019;48.312;14.226;2022-11-18T03:00:03;5.70;99.90
75442;DHT22;64019;48.312;14.226;2022-11-18T03:02:41;5.60;99.90
75442;DHT22;64019;48.312;14.226;2022-11-18T03:05:31;5.70;99.90
75442;DHT22;64019;48.312;14.226;2022-11-18T03:08:02;5.70;99.90
75442;DHT22;64019;48.312;14.226;2022-11-18T03:10:36;5.70;99.90
75442;DHT22;64019;48.312;14.226;2022-11-18T03:21:28;5.80;99.90
75442;DHT22;64019;48.312;14.226;2022-11-18T03:24:10;5.90;99.90
75442;DHT22;64019;48.312;14.226;2022-11-18T03:26:42;6.00;99.90
75442;DHT22;64019;48.312;14.226;2022-11-18T03:29:32;6.00;99.90
75442;DHT22;64019;48.312;14.226;2022-11-18T03:32:03;6.10;99.90
75442;DHT22;64019;48.312;14.226;2022-11-18T03:34:37;6.00;99.90
75442;DHT22;64019;48.312;14.226;2022-11-18T03:37:07;6.10;99.90
75442;DHT22;64019;48.312;14.226;2022-11-18T03:39:36;6.10;99.90
75442;DHT22;64019;48.312;14.226;2022-11-18T03:42:14;6.10;99.90
75442;DHT22;64019;48.312;14.226;2022-11-18T03:44:46;6.10;99.90
75442;DHT22;64019;48.312;14.226;2022-11-18T03:47:23;6.10;99.90
75442;DHT22;64019;48.312;14.226;2022-11-18T03:50:04;6.00;99.90
75442;DHT22;64019;48.312;14.226;2022-11-18T03:52:34;5.90;99.90
75442;DHT22;64019;48.312;14.226;2022-11-18T03:55:05;6.00;99.90
75442;DHT22;64019;48.312;14.226;2022-11-18T03:57:49;6.00;99.90
75442;DHT22;64019;48.312;14.226;2022-11-18T04:00:16;6.00;99.90
75442;DHT22;64019;48.312;14.226;2022-11-18T04:02:44;6.10;99.90
75442;DHT22;64019;48.312;14.226;2022-11-18T04:05:12;6.10;99.90
75442;DHT22;64019;48.312;14.226;2022-11-18T04:07:41;6.10;99.90
75442;DHT22;64019;48.312;14.226;2022-11-18T04:12:39;6.20;99.90
75442;DHT22;64019;48.312;14.226;2022-11-18T04:15:08;6.30;99.90
75442;DHT22;64019;48.312;14.226;2022-11-18T04:17:33;6.30;99.90
75442;DHT22;64019;48.312;14.226;2022-11-18T04:19:59;6.30;99.90
75442;DHT22;64019;48.312;14.226;2022-11-18T04:22:25;6.30;99.90
75442;DHT22;64019;48.312;14.226;2022-11-18T04:24:50;6.30;99.90
75442;DHT22;64019;48.312;14.226;2022-11-18T04:27:16;6.40;99.90
75442;DHT22;64019;48.312;14.226;2022-11-18T04:29:42;6.30;99.90
75442;DHT22;64019;48.312;14.226;2022-11-18T04:32:07;6.40;99.90
75442;DHT22;64019;48.312;14.226;2022-11-18T04:34:33;6.40;99.90
75442;DHT22;64019;48.312;14.226;2022-11-18T04:36:58;6.40;99.90
75442;DHT22;64019;48.312;14.226;2022-11-18T04:39:24;6.40;99.90
75442;DHT22;64019;48.312;14.226;2022-11-18T04:41:50;6.40;99.90
75442;DHT22;64019;48.312;14.226;2022-11-18T04:44:31;6.40;99.90
75442;DHT22;64019;48.312;14.226;2022-11-18T04:47:02;6.30;99.90
75442;DHT22;64019;48.312;14.226;2022-11-18T04:49:28;6.20;99.90
75442;DHT22;64019;48.312;14.226;2022-11-18T04:51:55;6.20;99.90
75442;DHT22;64019;48.312;14.226;2022-11-18T04:54:23;6.30;99.90
75442;DHT22;64019;48.312;14.226;2022-11-18T04:56:49;6.30;99.90
75442;DHT22;64019;48.312;14.226;2022-11-18T04:59:16;6.40;99.90
75442;DHT22;64019;48.312;14.226;2022-11-18T05:01:42;6.40;99.90
75442;DHT22;64019;48.312;14.226;2022-11-18T05:04:12;6.30;99.90
75442;DHT22;64019;48.312;14.226;2022-11-18T05:06:38;6.30;99.90
75442;DHT22;64019;48.312;14.226;2022-11-18T05:09:04;6.40;99.90
75442;DHT22;64019;48.312;14.226;2022-11-18T05:11:31;6.40;99.90
75442;DHT22;64019;48.312;14.226;2022-11-18T05:14:15;6.40;99.90
75442;DHT22;64019;48.312;14.226;2022-11-18T05:16:40;6.50;99.90
75442;DHT22;64019;48.312;14.226;2022-11-18T05:19:07;6.50;99.90
75442;DHT22;64019;48.312;14.226;2022-11-18T05:21:32;6.50;99.90
75442;DHT22;64019;48.312;14.226;2022-11-18T05:23:59;6.50;99.90
75442;DHT22;64019;48.312;14.226;2022-11-18T05:26:25;6.50;99.90
75442;DHT22;64019;48.312;14.226;2022-11-18T05:28:50;6.50;99.90
75442;DHT22;64019;48.312;14.226;2022-11-18T05:31:17;6.50;99.90
75442;DHT22;64019;48.312;14.226;2022-11-18T05:33:43;6.60;99.90
75442;DHT22;64019;48.312;14.226;2022-11-18T05:36:12;6.60;99.90
75442;DHT22;64019;48.312;14.226;2022-11-18T05:38:38;6.60;99.90
75442;DHT22;64019;48.312;14.226;2022-11-18T05:41:05;6.60;99.90
75442;DHT22;64019;48.312;14.226;2022-11-18T05:43:31;6.60;99.90
75442;DHT22;64019;48.312;14.226;2022-11-18T05:45:57;6.50;99.90
75442;DHT22;64019;48.312;14.226;2022-11-18T05:48:23;6.50;99.90
75442;DHT22;64019;48.312;14.226;2022-11-18T05:50:51;6.40;99.90
75442;DHT22;64019;48.312;14.226;2022-11-18T05:53:18;6.40;99.90
75442;DHT22;64019;48.312;14.226;2022-11-18T05:55:53;6.50;99.90
75442;DHT22;64019;48.312;14.226;2022-11-18T05:58:19;6.50;99.90
75442;DHT22;64019;48.312;14.226;2022-11-18T06:00:46;6.50;99.90
75442;DHT22;64019;48.312;14.226;2022-11-18T06:03:17;6.50;99.90
75442;DHT22;64019;48.312;14.226;2022-11-18T06:05:45;6.50;99.90
75442;DHT22;64019;48.312;14.226;2022-11-18T06:08:12;6.50;99.90
75442;DHT22;64019;48.312;14.226;2022-11-18T06:10:40;6.50;99.90
75442;DHT22;64019;48.312;14.226;2022-11-18T06:13:08;6.50;99.90
75442;DHT22;64019;48.312;14.226;2022-11-18T06:15:39;6.50;99.90
75442;DHT22;64019;48.312;14.226;2022-11-18T06:21:07;6.50;99.90
75442;DHT22;64019;48.312;14.226;2022-11-18T06:23:36;6.60;99.90
75442;DHT22;64019;48.312;14.226;2022-11-18T06:26:03;6.60;99.90
75442;DHT22;64019;48.312;14.226;2022-11-18T06:28:30;6.50;99.90
75442;DHT22;64019;48.312;14.226;2022-11-18T06:30:55;6.60;99.90
75442;DHT22;64019;48.312;14.226;2022-11-18T06:33:21;6.60;99.90
75442;DHT22;64019;48.312;14.226;2022-11-18T06:35:46;6.60;99.90
75442;DHT22;64019;48.312;14.226;2022-11-18T06:38:12;6.50;99.90
75442;DHT22;64019;48.312;14.226;2022-11-18T06:40:38;6.60;99.90
75442;DHT22;64019;48.312;14.226;2022-11-18T06:43:05;6.60;99.90
75442;DHT22;64019;48.312;14.226;2022-11-18T06:45:49;6.60;99.90
75442;DHT22;64019;48.312;14.226;2022-11-18T06:48:34;6.60;99.90
75442;DHT22;64019;48.312;14.226;2022-11-18T06:50:59;6.60;99.90
75442;DHT22;64019;48.312;14.226;2022-11-18T06:53:25;6.60;99.90
75442;DHT22;64019;48.312;14.226;2022-11-18T06:55:50;6.60;99.90
75442;DHT22;64019;48.312;14.226;2022-11-18T06:58:16;6.60;99.90
75442;DHT22;64019;48.312;14.226;2022-11-18T07:00:42;6.50;99.90
75442;DHT22;64019;48.312;14.226;2022-11-18T07:03:07;6.50;99.90
75442;DHT22;64019;48.312;14.226;2022-11-18T07:05:33;6.50;99.90
75442;DHT22;64019;48.312;14.226;2022-11-18T07:07:58;6.50;99.90
75442;DHT22;64019;48.312;14.226;2022-11-18T07:10:24;6.50;99.90
75442;DHT22;64019;48.312;14.226;2022-11-18T07:12:50;6.40;99.90
75442;DHT22;64019;48.312;14.226;2022-11-18T07:15:15;6.40;99.90
75442;DHT22;64019;48.312;14.226;2022-11-18T07:17:41;6.40;99.90
75442;DHT22;64019;48.312;14.226;2022-11-18T07:20:07;6.40;99.90
75442;DHT22;64019;48.312;14.226;2022-11-18T07:22:33;6.30;99.90
75442;DHT22;64019;48.312;14.226;2022-11-18T07:24:58;6.30;99.90
75442;DHT22;64019;48.312;14.226;2022-11-18T07:27:24;6.30;99.90
75442;DHT22;64019;48.312;14.226;2022-11-18T07:29:49;6.40;99.90
75442;DHT22;64019;48.312;14.226;2022-11-18T07:32:15;6.40;99.90
75442;DHT22;64019;48.312;14.226;2022-11-18T07:34:41;6.40;99.90
75442;DHT22;64019;48.312;14.226;2022-11-18T07:37:06;6.40;99.90
75442;DHT22;64019;48.312;14.226;2022-11-18T07:39:32;6.50;99.90
75442;DHT22;64019;48.312;14.226;2022-11-18T07:41:58;6.50;99.90
75442;DHT22;64019;48.312;14.226;2022-11-18T07:44:23;6.40;99.90
75442;DHT22;64019;48.312;14.226;2022-11-18T07:46:49;6.40;99.90
75442;DHT22;64019;48.312;14.226;2022-11-18T07:49:14;6.30;99.90
75442;DHT22;64019;48.312;14.226;2022-11-18T07:51:40;6.20;99.90
75442;DHT22;64019;48.312;14.226;2022-11-18T07:54:11;6.20;99.90
75442;DHT22;64019;48.312;14.226;2022-11-18T07:56:37;6.20;99.90
75442;DHT22;64019;48.312;14.226;2022-11-18T07:59:03;6.30;99.90
75442;DHT22;64019;48.312;14.226;2022-11-18T08:01:29;6.20;99.90
75442;DHT22;64019;48.312;14.226;2022-11-18T08:03:56;6.30;99.90
75442;DHT22;64019;48.312;14.226;2022-11-18T08:06:22;6.40;99.90
75442;DHT22;64019;48.312;14.226;2022-11-18T08:08:48;6.40;99.90
75442;DHT22;64019;48.312;14.226;2022-11-18T08:11:17;6.50;99.90
75442;DHT22;64019;48.312;14.226;2022-11-18T08:13:43;6.40;99.90
75442;DHT22;64019;48.312;14.226;2022-11-18T08:16:13;6.40;99.90
75442;DHT22;64019;48.312;14.226;2022-11-18T08:18:39;6.40;99.90
75442;DHT22;64019;48.312;14.226;2022-11-18T08:21:05;6.40;99.90
75442;DHT22;64019;48.312;14.226;2022-11-18T08:23:31;6.40;99.90
75442;DHT22;64019;48.312;14.226;2022-11-18T08:26:06;6.40;99.90
75442;DHT22;64019;48.312;14.226;2022-11-18T08:28:32;6.40;99.90
75442;DHT22;64019;48.312;14.226;2022-11-18T08:30:58;6.40;99.90
75442;DHT22;64019;48.312;14.226;2022-11-18T08:33:24;6.50;99.90
75442;DHT22;64019;48.312;14.226;2022-11-18T08:35:49;6.60;99.90
75442;DHT22;64019;48.312;14.226;2022-11-18T08:38:16;6.70;99.90
75442;DHT22;64019;48.312;14.226;2022-11-18T08:40:44;6.80;99.90
75442;DHT22;64019;48.312;14.226;2022-11-18T08:43:10;7.00;99.90
75442;DHT22;64019;48.312;14.226;2022-11-18T08:45:37;7.10;99.90
75442;DHT22;64019;48.312;14.226;2022-11-18T08:48:03;7.10;99.90
75442;DHT22;64019;48.312;14.226;2022-11-18T08:50:29;7.20;99.90
75442;DHT22;64019;48.312;14.226;2022-11-18T08:52:55;7.30;99.90
75442;DHT22;64019;48.312;14.226;2022-11-18T08:55:20;7.30;99.90
75442;DHT22;64019;48.312;14.226;2022-11-18T08:57:46;7.40;99.90
75442;DHT22;64019;48.312;14.226;2022-11-18T09:00:13;7.40;99.90
75442;DHT22;64019;48.312;14.226;2022-11-18T09:02:39;7.40;99.90
75442;DHT22;64019;48.312;14.226;2022-11-18T09:05:05;7.30;99.90
75442;DHT22;64019;48.312;14.226;2022-11-18T09:07:30;7.40;99.90
75442;DHT22;64019;48.312;14.226;2022-11-18T09:09:56;7.30;99.90
75442;DHT22;64019;48.312;14.226;2022-11-18T09:12:22;7.30;99.90
75442;DHT22;64019;48.312;14.226;2022-11-18T09:14:47;7.40;99.90
75442;DHT22;64019;48.312;14.226;2022-11-18T09:17:13;7.30;99.90
75442;DHT22;64019;48.312;14.226;2022-11-18T09:19:40;7.40;99.90
75442;DHT22;64019;48.312;14.226;2022-11-18T09:22:06;7.40;99.90
75442;DHT22;64019;48.312;14.226;2022-11-18T09:24:32;7.50;99.90
75442;DHT22;64019;48.312;14.226;2022-11-18T09:26:58;7.50;99.90
75442;DHT22;64019;48.312;14.226;2022-11-18T09:29:26;7.60;99.90
75442;DHT22;64019;48.312;14.226;2022-11-18T09:31:52;7.60;99.90
75442;DHT22;64019;48.312;14.226;2022-11-18T09:34:18;7.50;99.90
75442;DHT22;64019;48.312;14.226;2022-11-18T09:36:44;7.50;99.90
75442;DHT22;64019;48.312;14.226;2022-11-18T09:39:10;7.60;99.90
75442;DHT22;64019;48.312;14.226;2022-11-18T09:42:26;7.60;99.90
75442;DHT22;64019;48.312;14.226;2022-11-18T09:45:04;7.50;99.90
75442;DHT22;64019;48.312;14.226;2022-11-18T09:47:32;7.60;99.90
75442;DHT22;64019;48.312;14.226;2022-11-18T09:50:13;7.60;99.90
75442;DHT22;64019;48.312;14.226;2022-11-18T09:52:48;7.70;99.90
75442;DHT22;64019;48.312;14.226;2022-11-18T09:55:17;7.70;99.90
75442;DHT22;64019;48.312;14.226;2022-11-18T09:57:48;7.70;99.90
75442;DHT22;64019;48.312;14.226;2022-11-18T10:03:03;7.80;99.90
75442;DHT22;64019;48.312;14.226;2022-11-18T10:11:18;7.80;99.90
75442;DHT22;64019;48.312;14.226;2022-11-18T10:16:42;7.70;99.90
75442;DHT22;64019;48.312;14.226;2022-11-18T10:24:43;7.70;99.90
75442;DHT22;64019;48.312;14.226;2022-11-18T10:27:12;7.70;99.90
75442;DHT22;64019;48.312;14.226;2022-11-18T10:29:40;7.70;99.90
75442;DHT22;64019;48.312;14.226;2022-11-18T10:32:12;7.80;99.90
75442;DHT22;64019;48.312;14.226;2022-11-18T10:34:48;7.90;99.90
75442;DHT22;64019;48.312;14.226;2022-11-18T10:37:33;7.90;99.90
75442;DHT22;64019;48.312;14.226;2022-11-18T10:40:03;7.90;99.90
75442;DHT22;64019;48.312;14.226;2022-11-18T10:42:40;8.00;99.90
75442;DHT22;64019;48.312;14.226;2022-11-18T10:45:30;8.00;99.90
75442;DHT22;64019;48.312;14.226;2022-11-18T10:53:01;8.10;99.90
75442;DHT22;64019;48.312;14.226;2022-11-18T10:55:28;8.10;99.90
75442;DHT22;64019;48.312;14.226;2022-11-18T10:58:08;8.10;99.90
75442;DHT22;64019;48.312;14.226;2022-11-18T11:00:41;8.10;99.90
75442;DHT22;64019;48.312;14.226;2022-11-18T11:03:28;8.10;99.90
75442;DHT22;64019;48.312;14.226;2022-11-18T11:08:50;8.10;99.90
75442;DHT22;64019;48.312;14.226;2022-11-18T11:11:54;8.10;99.90
75442;DHT22;64019;48.312;14.226;2022-11-18T11:14:17;8.20;99.90
75442;DHT22;64019;48.312;14.226;2022-11-18T11:22:13;8.10;99.90
75442;DHT22;64019;48.312;14.226;2022-11-18T11:24:40;8.10;99.90
75442;DHT22;64019;48.312;14.226;2022-11-18T11:27:14;8.10;99.90
75442;DHT22;64019;48.312;14.226;2022-11-18T11:35:32;8.30;99.90
75442;DHT22;64019;48.312;14.226;2022-11-18T11:40:34;8.40;99.90
75442;DHT22;64019;48.312;14.226;2022-11-18T11:51:49;8.40;99.90
75442;DHT22;64019;48.312;14.226;2022-11-18T11:57:23;8.50;99.90
75442;DHT22;64019;48.312;14.226;2022-11-18T12:00:14;8.50;99.90
75442;DHT22;64019;48.312;14.226;2022-11-18T12:03:03;8.40;99.90
75442;DHT22;64019;48.312;14.226;2022-11-18T12:05:39;8.40;99.90
75442;DHT22;64019;48.312;14.226;2022-11-18T12:08:22;8.30;99.90
75442;DHT22;64019;48.312;14.226;2022-11-18T12:11:19;8.40;99.90
75442;DHT22;64019;48.312;14.226;2022-11-18T12:16:32;8.40;99.90
75442;DHT22;64019;48.312;14.226;2022-11-18T12:26:49;8.40;99.90
75442;DHT22;64019;48.312;14.226;2022-11-18T12:31:51;8.40;99.90
75442;DHT22;64019;48.312;14.226;2022-11-18T12:36:51;8.50;99.90
75442;DHT22;64019;48.312;14.226;2022-11-18T12:44:34;8.50;99.90
75442;DHT22;64019;48.312;14.226;2022-11-18T12:47:02;8.50;99.90
75442;DHT22;64019;48.312;14.226;2022-11-18T12:52:04;8.50;99.90
75442;DHT22;64019;48.312;14.226;2022-11-18T12:54:49;8.60;99.90
75442;DHT22;64019;48.312;14.226;2022-11-18T12:57:27;8.50;99.90
75442;DHT22;64019;48.312;14.226;2022-11-18T12:59:53;8.50;99.90
75442;DHT22;64019;48.312;14.226;2022-11-18T13:02:26;8.50;99.90
75442;DHT22;64019;48.312;14.226;2022-11-18T13:05:10;8.60;99.90
75442;DHT22;64019;48.312;14.226;2022-11-18T13:08:02;8.50;99.90
75442;DHT22;64019;48.312;14.226;2022-11-18T13:13:28;8.50;99.90
75442;DHT22;64019;48.312;14.226;2022-11-18T13:15:58;8.50;99.90
75442;DHT22;64019;48.312;14.226;2022-11-18T13:18:50;8.50;99.90
75442;DHT22;64019;48.312;14.226;2022-11-18T13:21:25;8.50;99.90
75442;DHT22;64019;48.312;14.226;2022-11-18T13:24:11;8.50;99.90
75442;DHT22;64019;48.312;14.226;2022-11-18T13:26:40;8.50;99.90
75442;DHT22;64019;48.312;14.226;2022-11-18T13:29:27;8.50;99.90
75442;DHT22;64019;48.312;14.226;2022-11-18T13:32:16;8.50;99.90
75442;DHT22;64019;48.312;14.226;2022-11-18T13:34:47;8.60;99.90
75442;DHT22;64019;48.312;14.226;2022-11-18T13:37:33;8.50;99.90
75442;DHT22;64019;48.312;14.226;2022-11-18T13:39:59;8.40;99.90
75442;DHT22;64019;48.312;14.226;2022-11-18T13:42:30;8.40;99.90
75442;DHT22;64019;48.312;14.226;2022-11-18T13:52:49;8.50;99.90
75442;DHT22;64019;48.312;14.226;2022-11-18T13:55:21;8.50;99.90
75442;DHT22;64019;48.312;14.226;2022-11-18T13:57:57;8.50;99.90
75442;DHT22;64019;48.312;14.226;2022-11-18T14:00:27;8.40;99.90
75442;DHT22;64019;48.312;14.226;2022-11-18T14:03:05;8.40;99.90
75442;DHT22;64019;48.312;14.226;2022-11-18T14:05:40;8.40;99.90
75442;DHT22;64019;48.312;14.226;2022-11-18T14:08:22;8.50;99.90
75442;DHT22;64019;48.312;14.226;2022-11-18T14:10:49;8.50;99.90
75442;DHT22;64019;48.312;14.226;2022-11-18T14:13:29;8.50;99.90
75442;DHT22;64019;48.312;14.226;2022-11-18T14:15:57;8.50;99.90
75442;DHT22;64019;48.312;14.226;2022-11-18T14:20:54;8.60;99.90
75442;DHT22;64019;48.312;14.226;2022-11-18T14:23:26;8.70;99.90
75442;DHT22;64019;48.312;14.226;2022-11-18T14:25:53;8.70;99.90
75442;DHT22;64019;48.312;14.226;2022-11-18T14:28:26;8.50;99.90
75442;DHT22;64019;48.312;14.226;2022-11-18T14:36:46;8.10;99.90
75442;DHT22;64019;48.312;14.226;2022-11-18T14:39:29;8.00;99.90
75442;DHT22;64019;48.312;14.226;2022-11-18T14:41:55;7.90;99.90
75442;DHT22;64019;48.312;14.226;2022-11-18T14:44:24;7.80;99.90
75442;DHT22;64019;48.312;14.226;2022-11-18T14:47:05;7.80;99.90
75442;DHT22;64019;48.312;14.226;2022-11-18T14:49:35;7.80;99.90
75442;DHT22;64019;48.312;14.226;2022-11-18T14:52:01;7.70;99.90
75442;DHT22;64019;48.312;14.226;2022-11-18T14:54:28;7.60;99.90
75442;DHT22;64019;48.312;14.226;2022-11-18T14:57:00;7.60;99.90
75442;DHT22;64019;48.312;14.226;2022-11-18T14:59:27;7.60;99.90
75442;DHT22;64019;48.312;14.226;2022-11-18T15:01:53;7.60;99.90
75442;DHT22;64019;48.312;14.226;2022-11-18T15:04:20;7.50;99.90
75442;DHT22;64019;48.312;14.226;2022-11-18T15:06:46;7.50;99.90
75442;DHT22;64019;48.312;14.226;2022-11-18T15:09:12;7.50;99.90
75442;DHT22;64019;48.312;14.226;2022-11-18T15:11:38;7.50;99.90
75442;DHT22;64019;48.312;14.226;2022-11-18T15:14:03;7.50;99.90
75442;DHT22;64019;48.312;14.226;2022-11-18T15:16:32;7.50;99.90
75442;DHT22;64019;48.312;14.226;2022-11-18T15:19:03;7.50;99.90
75442;DHT22;64019;48.312;14.226;2022-11-18T15:21:30;7.50;99.90
75442;DHT22;64019;48.312;14.226;2022-11-18T15:23:56;7.40;99.90
75442;DHT22;64019;48.312;14.226;2022-11-18T15:26:23;7.40;99.90
75442;DHT22;64019;48.312;14.226;2022-11-18T15:28:51;7.30;99.90
75442;DHT22;64019;48.312;14.226;2022-11-18T15:31:18;7.30;99.90
75442;DHT22;64019;48.312;14.226;2022-11-18T15:33:44;7.30;99.90
75442;DHT22;64019;48.312;14.226;2022-11-18T15:36:21;7.30;99.90
75442;DHT22;64019;48.312;14.226;2022-11-18T15:38:48;7.30;99.90
75442;DHT22;64019;48.312;14.226;2022-11-18T15:41:21;7.30;99.90
75442;DHT22;64019;48.312;14.226;2022-11-18T15:43:48;7.20;99.90
75442;DHT22;64019;48.312;14.226;2022-11-18T15:46:15;7.20;99.90
75442;DHT22;64019;48.312;14.226;2022-11-18T15:48:41;7.20;99.90
75442;DHT22;64019;48.312;14.226;2022-11-18T15:51:07;7.20;99.90
75442;DHT22;64019;48.312;14.226;2022-11-18T15:53:33;7.20;99.90
75442;DHT22;64019;48.312;14.226;2022-11-18T16:01:44;7.20;99.90
75442;DHT22;64019;48.312;14.226;2022-11-18T16:04:11;7.10;99.90
75442;DHT22;64019;48.312;14.226;2022-11-18T16:06:38;7.20;99.90
75442;DHT22;64019;48.312;14.226;2022-11-18T16:09:05;7.20;99.90
75442;DHT22;64019;48.312;14.226;2022-11-18T16:11:31;7.20;99.90
75442;DHT22;64019;48.312;14.226;2022-11-18T16:14:17;7.10;99.90
75442;DHT22;64019;48.312;14.226;2022-11-18T16:16:45;7.20;99.90
75442;DHT22;64019;48.312;14.226;2022-11-18T16:19:13;7.10;99.90
75442;DHT22;64019;48.312;14.226;2022-11-18T16:21:42;7.10;99.90
75442;DHT22;64019;48.312;14.226;2022-11-18T16:24:10;7.10;99.90
75442;DHT22;64019;48.312;14.226;2022-11-18T16:26:37;7.10;99.90
75442;DHT22;64019;48.312;14.226;2022-11-18T16:29:05;7.10;99.90
75442;DHT22;64019;48.312;14.226;2022-11-18T16:31:32;7.10;99.90
75442;DHT22;64019;48.312;14.226;2022-11-18T16:34:25;7.10;99.90
75442;DHT22;64019;48.312;14.226;2022-11-18T16:36:56;7.10;99.90
75442;DHT22;64019;48.312;14.226;2022-11-18T16:39:26;7.10;99.90
75442;DHT22;64019;48.312;14.226;2022-11-18T16:41:54;7.00;99.90
75442;DHT22;64019;48.312;14.226;2022-11-18T16:44:20;7.10;99.90
75442;DHT22;64019;48.312;14.226;2022-11-18T16:46:54;7.00;99.90
75442;DHT22;64019;48.312;14.226;2022-11-18T16:49:23;7.00;99.90
75442;DHT22;64019;48.312;14.226;2022-11-18T16:51:51;7.00;99.90
75442;DHT22;64019;48.312;14.226;2022-11-18T16:54:18;7.00;99.90
75442;DHT22;64019;48.312;14.226;2022-11-18T16:56:45;7.00;99.90
75442;DHT22;64019;48.312;14.226;2022-11-18T16:59:13;6.90;99.90
75442;DHT22;64019;48.312;14.226;2022-11-18T17:01:40;6.90;99.90
75442;DHT22;64019;48.312;14.226;2022-11-18T17:04:07;7.00;99.90
75442;DHT22;64019;48.312;14.226;2022-11-18T17:06:32;7.00;99.90
75442;DHT22;64019;48.312;14.226;2022-11-18T17:08:58;7.00;99.90
75442;DHT22;64019;48.312;14.226;2022-11-18T17:11:25;7.10;99.90
75442;DHT22;64019;48.312;14.226;2022-11-18T17:13:51;7.00;99.90
75442;DHT22;64019;48.312;14.226;2022-11-18T17:16:19;7.00;99.90
75442;DHT22;64019;48.312;14.226;2022-11-18T17:18:45;7.10;99.90
75442;DHT22;64019;48.312;14.226;2022-11-18T17:21:16;7.00;99.90
75442;DHT22;64019;48.312;14.226;2022-11-18T17:23:43;7.00;99.90
75442;DHT22;64019;48.312;14.226;2022-11-18T17:26:11;7.00;99.90
75442;DHT22;64019;48.312;14.226;2022-11-18T17:28:37;7.00;99.90
75442;DHT22;64019;48.312;14.226;2022-11-18T17:31:07;6.90;99.90
75442;DHT22;64019;48.312;14.226;2022-11-18T17:33:33;6.90;99.90
75442;DHT22;64019;48.312;14.226;2022-11-18T17:36:07;7.00;99.90
75442;DHT22;64019;48.312;14.226;2022-11-18T17:38:34;7.00;99.90
75442;DHT22;64019;48.312;14.226;2022-11-18T17:41:01;7.00;99.90
75442;DHT22;64019;48.312;14.226;2022-11-18T17:43:27;7.00;99.90
75442;DHT22;64019;48.312;14.226;2022-11-18T17:45:57;6.90;99.90
75442;DHT22;64019;48.312;14.226;2022-11-18T17:48:26;6.90;99.90